createdAt,value
2023-04-24T00:01:48.134Z,5.10
2023-04-24T00:04:18.711Z,5.50
2023-04-24T00:06:51.066Z,5.10
2023-04-24T00:09:20.084Z,5.50
2023-04-24T00:11:50.086Z,5.80
2023-04-24T00:14:21.711Z,5.50
2023-04-24T00:16:51.882Z,5.10
2023-04-24T00:19:22.740Z,5.50
2023-04-24T00:21:52.756Z,5.30
2023-04-24T00:24:22.712Z,5.30
2023-04-24T00:26:52.231Z,5.20
2023-04-24T00:29:23.040Z,6.40
2023-04-24T00:31:52.421Z,5.90
2023-04-24T00:34:22.672Z,5.60
2023-04-24T00:36:53.651Z,5.60
2023-04-24T00:39:24.530Z,6.50
2023-04-24T00:41:54.832Z,5.60
2023-04-24T00:44:24.885Z,5.70
2023-04-24T00:46:56.883Z,5.90
2023-04-24T00:49:26.683Z,5.70
2023-04-24T00:51:58.501Z,5.90
2023-04-24T00:54:28.099Z,6.10
2023-04-24T00:56:58.704Z,5.10
2023-04-24T00:59:28.374Z,4.70
2023-04-24T01:01:59.742Z,5.40
2023-04-24T01:04:29.377Z,5.60
2023-04-24T01:06:59.411Z,5.50
2023-04-24T01:09:31.084Z,5.80
2023-04-24T01:12:02.186Z,5.80
2023-04-24T01:14:32.898Z,6.80
2023-04-24T01:17:02.915Z,5.90
2023-04-24T01:19:33.076Z,6.30
2023-04-24T01:22:04.007Z,5.90
2023-04-24T01:24:33.161Z,6.00
2023-04-24T01:27:02.643Z,6.00
2023-04-24T01:29:32.917Z,6.10
2023-04-24T01:32:03.536Z,6.00
2023-04-24T01:34:33.981Z,5.90
2023-04-24T01:37:03.572Z,6.50
2023-04-24T01:39:34.720Z,6.10
2023-04-24T01:42:06.909Z,5.90
2023-04-24T01:44:36.555Z,6.30
2023-04-24T01:47:07.803Z,5.90
2023-04-24T01:49:40.621Z,6.00
2023-04-24T01:52:10.792Z,6.10
2023-04-24T01:54:42.536Z,6.70
2023-04-24T01:57:11.939Z,5.90
2023-04-24T01:59:42.287Z,6.50
2023-04-24T02:02:12.076Z,5.50
2023-04-24T02:04:42.082Z,6.70
2023-04-24T02:07:12.129Z,6.20
2023-04-24T02:09:41.773Z,7.10
2023-04-24T02:12:12.038Z,7.20
2023-04-24T02:14:41.791Z,6.30
2023-04-24T02:17:15.541Z,6.00
2023-04-24T02:19:45.108Z,6.10
2023-04-24T02:22:14.284Z,6.00
2023-04-24T02:24:44.246Z,6.00
2023-04-24T02:27:16.264Z,6.50
2023-04-24T02:32:17.091Z,6.10
2023-04-24T02:34:48.063Z,6.20
2023-04-24T02:37:17.740Z,6.50
2023-04-24T02:39:47.885Z,6.40
2023-04-24T02:42:18.316Z,5.70
2023-04-24T02:44:47.298Z,6.50
2023-04-24T02:47:16.563Z,6.60
2023-04-24T02:49:46.962Z,7.40
2023-04-24T02:52:17.996Z,7.50
2023-04-24T02:54:51.082Z,6.90
2023-04-24T02:57:22.472Z,7.10
2023-04-24T02:59:52.007Z,7.40
2023-04-24T03:02:22.754Z,7.30
2023-04-24T03:04:52.175Z,7.90
2023-04-24T03:07:25.871Z,8.00
2023-04-24T03:09:55.468Z,7.00
2023-04-24T03:12:26.000Z,7.40
2023-04-24T03:14:56.287Z,7.20
2023-04-24T03:17:25.241Z,7.60
2023-04-24T03:19:55.849Z,6.50
2023-04-24T03:22:26.584Z,7.40
2023-04-24T03:24:58.140Z,6.30
2023-04-24T03:27:28.361Z,7.40
2023-04-24T03:30:07.913Z,7.30
2023-04-24T03:32:50.539Z,7.30
2023-04-24T03:35:26.400Z,7.80
2023-04-24T03:37:55.684Z,7.20
2023-04-24T03:40:53.770Z,8.70
2023-04-24T03:43:58.185Z,7.10
2023-04-24T03:46:30.924Z,8.10
2023-04-24T03:49:01.932Z,8.20
2023-04-24T03:51:35.098Z,8.60
2023-04-24T03:54:22.396Z,7.90
2023-04-24T03:56:55.430Z,8.30
2023-04-24T03:59:26.969Z,8.40
2023-04-24T04:02:16.453Z,8.20
2023-04-24T04:04:46.421Z,8.10
2023-04-24T04:07:16.919Z,7.80
2023-04-24T04:09:46.962Z,8.00
2023-04-24T04:12:16.596Z,7.40
2023-04-24T04:14:47.692Z,7.50
2023-04-24T04:17:21.311Z,8.50
2023-04-24T04:19:52.470Z,8.00
2023-04-24T04:22:21.674Z,8.50
2023-04-24T04:24:53.111Z,10.00
2023-04-24T04:27:25.626Z,9.40
2023-04-24T04:30:06.268Z,8.40
2023-04-24T04:32:43.184Z,8.20
2023-04-24T04:35:12.783Z,9.10
2023-04-24T04:37:43.617Z,8.20
2023-04-24T04:40:21.898Z,8.30
2023-04-24T04:42:55.444Z,9.00
2023-04-24T04:45:25.672Z,9.40
2023-04-24T04:48:16.255Z,9.90
2023-04-24T04:50:46.579Z,9.50
2023-04-24T04:53:15.590Z,9.30
2023-04-24T04:55:45.283Z,9.90
2023-04-24T04:58:18.143Z,9.30
2023-04-24T05:00:49.016Z,10.20
2023-04-24T05:03:32.173Z,9.60
2023-04-24T05:06:08.585Z,8.90
2023-04-24T05:11:14.371Z,9.90
2023-04-24T05:13:45.637Z,10.20
2023-04-24T05:16:20.634Z,8.90
2023-04-24T05:18:51.363Z,9.10
2023-04-24T05:21:24.174Z,7.80
2023-04-24T05:23:54.744Z,8.40
2023-04-24T05:26:37.074Z,8.70
2023-04-24T05:29:07.103Z,9.00
2023-04-24T05:31:36.376Z,9.10
2023-04-24T05:34:07.007Z,9.10
2023-04-24T05:36:37.091Z,10.70
2023-04-24T05:39:08.190Z,9.60
2023-04-24T05:41:38.677Z,9.50
2023-04-24T05:44:09.117Z,9.40
2023-04-24T05:46:38.638Z,9.30
2023-04-24T05:49:08.172Z,10.40
2023-04-24T05:51:40.884Z,10.20
2023-04-24T05:54:13.657Z,9.70
2023-04-24T05:56:44.154Z,10.60
2023-04-24T05:59:17.077Z,10.80
2023-04-24T06:01:46.513Z,10.20
2023-04-24T06:04:19.605Z,12.00
2023-04-24T06:06:52.392Z,11.20
2023-04-24T06:09:21.686Z,10.90
2023-04-24T06:11:54.921Z,11.00
2023-04-24T06:14:27.347Z,11.10
2023-04-24T06:17:20.612Z,9.40
2023-04-24T06:19:51.219Z,8.60
2023-04-24T06:22:21.571Z,8.80
2023-04-24T06:24:51.452Z,8.50
2023-04-24T06:27:21.136Z,8.30
2023-04-24T06:29:56.221Z,8.70
2023-04-24T06:32:26.824Z,8.00
2023-04-24T06:34:57.964Z,8.30
2023-04-24T06:39:58.419Z,7.20
2023-04-24T06:42:28.895Z,7.70
2023-04-24T06:45:01.173Z,7.20
2023-04-24T06:47:31.437Z,7.40
2023-04-24T06:50:01.715Z,7.40
2023-04-24T06:52:35.253Z,8.10
2023-04-24T06:55:06.489Z,6.10
2023-04-24T06:57:36.240Z,7.90
2023-04-24T07:00:08.508Z,6.90
2023-04-24T07:02:39.026Z,7.20
2023-04-24T07:05:09.892Z,7.20
2023-04-24T07:07:41.785Z,7.40
2023-04-24T07:10:11.352Z,7.60
2023-04-24T07:12:40.774Z,7.10
2023-04-24T07:15:12.108Z,6.80
2023-04-24T07:17:44.806Z,7.00
2023-04-24T07:20:15.806Z,6.20
2023-04-24T07:22:45.946Z,6.60
2023-04-24T07:25:16.109Z,6.30
2023-04-24T07:27:45.768Z,6.30
2023-04-24T07:30:15.140Z,6.40
2023-04-24T07:32:44.126Z,6.80
2023-04-24T07:35:13.647Z,5.80
2023-04-24T07:37:47.115Z,5.90
2023-04-24T07:40:17.212Z,6.00
2023-04-24T07:42:46.729Z,6.10
2023-04-24T07:45:16.845Z,5.10
2023-04-24T07:47:47.396Z,6.10
2023-04-24T07:50:17.237Z,6.00
2023-04-24T07:52:46.204Z,6.40
2023-04-24T07:55:15.744Z,6.40
2023-04-24T07:57:45.461Z,5.90
2023-04-24T08:00:16.602Z,5.70
2023-04-24T08:02:47.270Z,5.90
2023-04-24T08:05:17.977Z,6.20
2023-04-24T08:07:50.390Z,5.70
2023-04-24T08:10:21.051Z,5.00
2023-04-24T08:12:50.530Z,5.80
2023-04-24T08:15:20.142Z,5.50
2023-04-24T08:17:50.008Z,5.60
2023-04-24T08:20:18.999Z,5.70
2023-04-24T08:22:51.484Z,5.90
2023-04-24T08:25:21.529Z,5.80
2023-04-24T08:27:54.102Z,5.40
2023-04-24T08:30:23.613Z,5.10
2023-04-24T08:32:52.803Z,4.70
2023-04-24T08:35:22.144Z,4.40
2023-04-24T08:37:51.555Z,4.20
2023-04-24T08:40:30.412Z,4.80
2023-04-24T08:43:01.737Z,5.10
2023-04-24T08:45:31.740Z,5.40
2023-04-24T08:48:01.640Z,5.20
2023-04-24T08:50:32.294Z,4.20
2023-04-24T08:53:04.577Z,4.60
2023-04-24T08:55:39.257Z,4.60
2023-04-24T08:58:08.987Z,4.40
2023-04-24T09:00:48.886Z,4.00
2023-04-24T09:03:20.128Z,4.60
2023-04-24T09:05:51.883Z,4.60
2023-04-24T09:08:21.942Z,4.30
2023-04-24T09:10:51.508Z,4.30
2023-04-24T09:13:22.106Z,4.60
2023-04-24T09:15:52.557Z,4.00
2023-04-24T09:18:22.600Z,3.80
2023-04-24T09:21:01.647Z,3.90
2023-04-24T09:23:33.064Z,4.00
2023-04-24T09:28:41.333Z,4.00
2023-04-24T09:31:17.129Z,4.60
2023-04-24T09:34:09.265Z,3.70
2023-04-24T09:36:42.128Z,3.80
2023-04-24T09:39:14.083Z,4.40
2023-04-24T09:41:52.279Z,4.50
2023-04-24T09:44:28.147Z,4.40
2023-04-24T09:47:00.258Z,4.30
2023-04-24T09:49:34.754Z,4.80
2023-04-24T09:52:06.718Z,4.70
2023-04-24T09:54:38.403Z,4.20
2023-04-24T09:57:11.537Z,4.20
2023-04-24T09:59:47.755Z,4.60
2023-04-24T10:02:21.469Z,4.80
2023-04-24T10:05:01.091Z,5.00
2023-04-24T10:07:34.719Z,5.10
2023-04-24T10:10:07.571Z,4.80
2023-04-24T10:15:11.338Z,3.70
2023-04-24T10:17:53.755Z,5.10
2023-04-24T10:20:30.865Z,4.70
2023-04-24T10:23:01.653Z,4.00
2023-04-24T10:25:35.748Z,4.30
2023-04-24T10:28:06.452Z,3.70
2023-04-24T10:30:37.328Z,3.90
2023-04-24T10:33:09.352Z,4.30
2023-04-24T10:35:46.862Z,3.90
2023-04-24T10:38:25.469Z,3.90
2023-04-24T10:41:11.210Z,4.10
2023-04-24T10:43:42.741Z,4.30
2023-04-24T10:46:11.848Z,4.50
2023-04-24T10:48:45.710Z,4.10
2023-04-24T10:51:15.579Z,4.10
2023-04-24T10:53:44.783Z,4.00
2023-04-24T10:56:14.807Z,3.40
2023-04-24T10:58:55.061Z,4.10
2023-04-24T11:01:31.302Z,4.00
2023-04-24T11:04:04.539Z,3.60
2023-04-24T11:06:38.380Z,3.80
2023-04-24T11:09:14.014Z,4.00
2023-04-24T11:11:47.906Z,3.80
2023-04-24T11:14:17.848Z,3.70
2023-04-24T11:16:54.352Z,4.10
2023-04-24T11:19:26.685Z,3.90
2023-04-24T11:22:04.531Z,4.30
2023-04-24T11:24:48.835Z,4.10
2023-04-24T11:27:23.723Z,3.60
2023-04-24T11:32:24.754Z,3.90
2023-04-24T11:38:24.255Z,4.40
2023-04-24T11:40:56.078Z,4.10
2023-04-24T11:43:26.332Z,3.50
2023-04-24T11:45:55.650Z,3.50
2023-04-24T11:48:24.582Z,4.20
2023-04-24T11:50:54.242Z,3.90
2023-04-24T11:53:24.633Z,3.60
2023-04-24T11:55:54.210Z,4.00
2023-04-24T11:58:24.707Z,4.20
2023-04-24T12:00:59.709Z,4.20
2023-04-24T12:03:29.174Z,4.20
2023-04-24T12:06:13.439Z,4.20
2023-04-24T12:08:42.702Z,4.10
2023-04-24T12:11:12.004Z,3.80
2023-04-24T12:13:41.305Z,4.40
2023-04-24T12:16:10.776Z,3.70
2023-04-24T12:18:47.156Z,3.80
2023-04-24T12:21:19.566Z,4.00
2023-04-24T12:23:52.314Z,4.00
2023-04-24T12:26:24.132Z,3.90
2023-04-24T12:28:53.597Z,4.20
2023-04-24T12:31:23.110Z,4.20
2023-04-24T12:33:54.479Z,3.80
2023-04-24T12:36:24.476Z,4.30
2023-04-24T12:38:56.936Z,4.70
2023-04-24T12:41:27.429Z,4.50
2023-04-24T12:43:56.976Z,4.40
2023-04-24T12:46:28.436Z,5.10
2023-04-24T12:49:00.368Z,4.20
2023-04-24T12:51:29.482Z,5.70
2023-04-24T12:53:58.483Z,5.80
2023-04-24T12:56:29.149Z,5.80
2023-04-24T12:58:58.018Z,5.50
2023-04-24T13:01:28.372Z,6.60
2023-04-24T13:03:58.776Z,6.50
2023-04-24T13:06:29.599Z,6.90
2023-04-24T13:09:01.344Z,6.40
2023-04-24T13:11:30.250Z,6.50
2023-04-24T13:13:59.644Z,7.10
2023-04-24T13:16:29.697Z,6.20
2023-04-24T13:18:58.696Z,5.90
2023-04-24T13:21:28.879Z,5.20
2023-04-24T13:23:57.873Z,6.00
2023-04-24T13:26:27.388Z,7.00
2023-04-24T13:28:57.096Z,7.70
2023-04-24T13:31:27.853Z,6.30
2023-04-24T13:34:04.803Z,6.70
2023-04-24T13:36:36.543Z,7.80
2023-04-24T13:39:07.912Z,7.50
2023-04-24T13:41:37.846Z,7.50
2023-04-24T13:44:07.631Z,7.00
2023-04-24T13:46:37.811Z,6.70
2023-04-24T13:49:07.167Z,7.50
2023-04-24T13:51:36.104Z,6.80
2023-04-24T13:54:05.148Z,7.10
2023-04-24T13:56:34.862Z,6.70
2023-04-24T13:59:04.689Z,6.90
2023-04-24T14:01:34.785Z,7.10
2023-04-24T14:04:06.086Z,6.90
2023-04-24T14:06:36.429Z,7.90
2023-04-24T14:09:06.203Z,6.90
2023-04-24T14:11:36.382Z,6.40
2023-04-24T14:14:07.090Z,7.60
2023-04-24T14:16:37.157Z,8.00
2023-04-24T14:19:07.560Z,8.40
2023-04-24T14:21:37.331Z,8.60
2023-04-24T14:24:06.376Z,7.90
2023-04-24T14:26:38.596Z,9.60
2023-04-24T14:29:14.844Z,9.40
2023-04-24T14:31:46.297Z,9.10
2023-04-24T14:34:16.694Z,8.30
2023-04-24T14:36:47.728Z,8.50
2023-04-24T14:39:19.757Z,9.30
2023-04-24T14:41:49.788Z,9.40
2023-04-24T14:44:19.246Z,9.50
2023-04-24T14:46:49.863Z,9.80
2023-04-24T14:49:21.949Z,9.80
2023-04-24T14:51:52.100Z,8.80
2023-04-24T14:54:24.526Z,9.00
2023-04-24T14:56:58.334Z,7.50
2023-04-24T14:59:30.189Z,8.30
2023-04-24T15:02:14.871Z,7.80
2023-04-24T15:04:45.572Z,8.30
2023-04-24T15:07:15.197Z,9.10
2023-04-24T15:09:45.721Z,8.10
2023-04-24T15:12:15.752Z,8.80
2023-04-24T15:14:45.388Z,9.00
2023-04-24T15:17:14.649Z,8.10
2023-04-24T15:19:44.649Z,9.40
2023-04-24T15:22:18.270Z,8.50
2023-04-24T15:24:47.893Z,9.30
2023-04-24T15:27:16.873Z,10.00
2023-04-24T15:29:46.274Z,8.80
2023-04-24T15:32:15.924Z,8.20
2023-04-24T15:34:47.527Z,8.30
2023-04-24T15:37:18.643Z,7.90
2023-04-24T15:39:48.382Z,7.00
2023-04-24T15:42:18.546Z,7.00
2023-04-24T15:44:48.228Z,7.90
2023-04-24T15:47:20.906Z,7.50
2023-04-24T15:49:50.609Z,7.50
2023-04-24T15:52:19.812Z,7.70
2023-04-24T15:54:51.054Z,7.10
2023-04-24T15:57:22.222Z,7.60
2023-04-24T15:59:51.287Z,8.90
2023-04-24T16:02:24.892Z,8.70
2023-04-24T16:07:24.492Z,8.90
2023-04-24T16:09:55.262Z,8.60
2023-04-24T16:12:28.358Z,8.00
2023-04-24T16:14:58.454Z,9.20
2023-04-24T16:17:29.687Z,8.70
2023-04-24T16:20:01.094Z,8.30
2023-04-24T16:22:30.125Z,9.10
2023-04-24T16:25:00.228Z,8.20
2023-04-24T16:27:30.336Z,8.10
2023-04-24T16:30:05.146Z,8.10
2023-04-24T16:32:34.552Z,6.90
2023-04-24T16:35:05.788Z,7.10
2023-04-24T16:37:35.923Z,7.70
2023-04-24T16:40:12.270Z,7.70
2023-04-24T16:42:44.537Z,7.30
2023-04-24T16:45:14.776Z,7.70
2023-04-24T16:47:45.142Z,8.00
2023-04-24T16:50:15.714Z,7.10
2023-04-24T16:52:47.617Z,7.60
2023-04-24T16:55:17.287Z,7.70
2023-04-24T16:57:46.903Z,7.20
2023-04-24T17:00:17.157Z,9.50
2023-04-24T17:02:49.011Z,9.70
2023-04-24T17:05:20.838Z,8.70
2023-04-24T17:07:52.707Z,9.40
2023-04-24T17:10:21.999Z,9.10
2023-04-24T17:12:51.915Z,8.80
2023-04-24T17:15:22.046Z,10.00
2023-04-24T17:17:51.179Z,9.00
2023-04-24T17:20:23.322Z,9.90
2023-04-24T17:22:53.754Z,9.40
2023-04-24T17:25:23.530Z,9.90
2023-04-24T17:27:53.352Z,10.90
2023-04-24T17:30:27.098Z,11.50
2023-04-24T17:32:57.714Z,11.70
2023-04-24T17:35:27.089Z,9.80
2023-04-24T17:37:59.867Z,11.20
2023-04-24T17:40:29.481Z,10.40
2023-04-24T17:42:58.382Z,9.00
2023-04-24T17:45:29.524Z,9.20
2023-04-24T17:48:05.947Z,9.40
2023-04-24T17:50:36.282Z,9.40
2023-04-24T17:53:06.234Z,10.10
2023-04-24T17:55:35.438Z,10.40
2023-04-24T17:58:04.936Z,9.50
2023-04-24T18:00:36.673Z,10.30
2023-04-24T18:03:08.727Z,9.70
2023-04-24T18:05:39.594Z,11.10
2023-04-24T18:08:11.060Z,9.50
2023-04-24T18:10:40.543Z,9.70
2023-04-24T18:13:10.370Z,10.00
2023-04-24T18:15:43.890Z,10.10
2023-04-24T18:18:13.832Z,10.40
2023-04-24T18:20:44.321Z,12.60
2023-04-24T18:23:14.018Z,13.70
2023-04-24T18:25:44.139Z,14.20
2023-04-24T18:28:13.593Z,15.30
2023-04-24T18:30:43.554Z,14.50
2023-04-24T18:33:13.678Z,13.70
2023-04-24T18:35:43.767Z,15.10
2023-04-24T18:38:14.074Z,14.70
2023-04-24T18:40:44.957Z,15.90
2023-04-24T18:43:14.405Z,14.60
2023-04-24T18:45:43.873Z,13.30
2023-04-24T18:48:14.414Z,13.90
2023-04-24T18:50:44.327Z,13.20
2023-04-24T18:53:17.364Z,13.20
2023-04-24T18:55:46.375Z,12.20
2023-04-24T18:58:16.820Z,14.30
2023-04-24T19:00:46.354Z,13.40
2023-04-24T19:03:15.976Z,13.20
2023-04-24T19:05:45.661Z,13.30
2023-04-24T19:08:14.841Z,15.00
2023-04-24T19:10:45.072Z,15.00
2023-04-24T19:13:14.394Z,13.60
2023-04-24T19:15:45.936Z,14.60
2023-04-24T19:18:15.040Z,14.70
2023-04-24T19:20:46.299Z,14.20
2023-04-24T19:23:16.433Z,14.90
2023-04-24T19:25:45.502Z,15.20
2023-04-24T19:28:15.912Z,14.70
2023-04-24T19:30:46.853Z,14.10
2023-04-24T19:33:16.052Z,15.00
2023-04-24T19:35:45.557Z,14.80
2023-04-24T19:38:14.561Z,15.90
2023-04-24T19:40:44.585Z,14.90
2023-04-24T19:43:14.187Z,15.90
2023-04-24T19:45:45.045Z,14.70
2023-04-24T19:48:14.791Z,13.00
2023-04-24T19:50:44.660Z,14.60
2023-04-24T19:53:15.473Z,11.20
2023-04-24T19:55:44.575Z,11.20
2023-04-24T19:58:13.672Z,11.50
2023-04-24T20:00:43.277Z,12.20
2023-04-24T20:03:25.497Z,12.20
2023-04-24T20:06:01.127Z,12.60
2023-04-24T20:08:31.769Z,12.70
2023-04-24T20:11:01.411Z,14.60
2023-04-24T20:13:33.237Z,14.20
2023-04-24T20:16:04.956Z,13.50
2023-04-24T20:18:34.759Z,13.00
2023-04-24T20:21:04.207Z,13.00
2023-04-24T20:23:33.888Z,14.40
2023-04-24T20:26:05.244Z,15.50
2023-04-24T20:28:35.178Z,15.40
2023-04-24T20:31:05.060Z,16.20
2023-04-24T20:33:37.465Z,15.60
2023-04-24T20:36:06.997Z,16.20
2023-04-24T20:38:38.222Z,16.30
2023-04-24T20:41:10.948Z,15.70
2023-04-24T20:43:42.246Z,15.00
2023-04-24T20:46:12.311Z,14.30
2023-04-24T20:48:41.920Z,17.00
2023-04-24T20:51:12.046Z,17.00
2023-04-24T20:53:41.362Z,17.50
2023-04-24T20:56:11.927Z,14.20
2023-04-24T20:58:42.367Z,15.70
2023-04-24T21:01:14.020Z,14.30
2023-04-24T21:03:44.857Z,15.50
2023-04-24T21:06:14.668Z,14.70
2023-04-24T21:08:44.269Z,16.20
2023-04-24T21:11:13.679Z,14.70
2023-04-24T21:13:47.600Z,14.50
2023-04-24T21:16:17.525Z,14.40
2023-04-24T21:18:47.619Z,14.10
2023-04-24T21:21:17.104Z,13.40
2023-04-24T21:23:46.303Z,14.70
2023-04-24T21:26:18.885Z,14.10
2023-04-24T21:28:48.944Z,14.90
2023-04-24T21:31:18.940Z,14.50
2023-04-24T21:33:49.419Z,15.20
2023-04-24T21:36:19.892Z,15.60
2023-04-24T21:38:54.771Z,14.70
2023-04-24T21:41:24.992Z,14.50
2023-04-24T21:43:54.921Z,15.80
2023-04-24T21:46:25.043Z,17.00
2023-04-24T21:48:55.596Z,16.40
2023-04-24T21:51:27.285Z,17.80
2023-04-24T21:53:56.938Z,17.30
2023-04-24T21:56:26.653Z,17.90
2023-04-24T21:58:57.268Z,18.10
2023-04-24T22:01:27.670Z,16.30
2023-04-24T22:03:57.427Z,15.60
2023-04-24T22:06:27.687Z,15.10
2023-04-24T22:08:56.679Z,16.80
2023-04-24T22:11:28.174Z,17.50
2023-04-24T22:13:58.129Z,17.80
2023-04-24T22:16:31.035Z,17.90
2023-04-24T22:19:01.259Z,19.30
2023-04-24T22:21:30.309Z,19.50
2023-04-24T22:23:59.442Z,19.80
2023-04-24T22:26:34.449Z,20.00
2023-04-24T22:29:04.105Z,20.30
2023-04-24T22:31:34.983Z,19.00
2023-04-24T22:34:04.099Z,19.40
2023-04-24T22:36:34.474Z,21.10
2023-04-24T22:39:05.650Z,18.60
2023-04-24T22:41:36.399Z,18.80
2023-04-24T22:44:07.857Z,19.20
2023-04-24T22:46:37.184Z,19.70
2023-04-24T22:49:06.934Z,19.00
2023-04-24T22:51:37.834Z,18.90
2023-04-24T22:54:08.030Z,15.70
2023-04-24T22:56:38.579Z,16.60
2023-04-24T22:59:09.415Z,14.90
2023-04-24T23:01:39.144Z,15.50
2023-04-24T23:04:09.621Z,15.90
2023-04-24T23:06:42.129Z,15.00
2023-04-24T23:09:12.748Z,17.40
2023-04-24T23:11:42.165Z,16.50
2023-04-24T23:14:11.364Z,16.10
2023-04-24T23:16:43.114Z,18.60
2023-04-24T23:19:13.153Z,15.60
2023-04-24T23:21:43.774Z,16.40
2023-04-24T23:24:13.186Z,16.10
2023-04-24T23:26:42.751Z,17.30
2023-04-24T23:29:15.355Z,16.90
2023-04-24T23:31:44.637Z,16.10
2023-04-24T23:34:19.238Z,16.30
2023-04-24T23:36:54.833Z,17.80
2023-04-24T23:39:23.938Z,18.10
2023-04-24T23:41:57.043Z,18.10
2023-04-24T23:44:27.145Z,18.50
2023-04-24T23:47:02.894Z,18.40
2023-04-24T23:49:34.095Z,17.90
2023-04-24T23:52:04.184Z,18.80
2023-04-24T23:54:33.874Z,18.30
2023-04-24T23:57:06.154Z,18.40
2023-04-24T23:59:36.179Z,18.50
